Time;durP1;ratioP1;P1;durP2;ratioP2;P2;SDS_P1;SDS_P2;PMS_P1;PMS_P2;Temp;Humidity;BMP_temperature;BMP_pressure;BME280_temperature;BME280_humidity;BME280_pressure;Samples;Min_cycle;Max_cycle;Signal;HPM_P1;HPM_P2
2022/09/29 00:00:30;;;;;;;13.95;9.05;;;8.20;99.90;;;;;;5032536;28;20037;-45
2022/09/29 00:02:56;;;;;;;12.57;8.38;;;8.20;99.90;;;;;;5020400;28;20049;-45
2022/09/29 00:05:21;;;;;;;13.70;9.20;;;8.20;99.90;;;;;;5022872;28;20020;-45
2022/09/29 00:07:47;;;;;;;15.82;9.02;;;8.10;99.90;;;;;;5021599;28;20021;-44
2022/09/29 00:10:12;;;;;;;12.05;7.35;;;8.00;99.90;;;;;;5021295;28;20029;-45
2022/09/29 00:12:38;;;;;;;14.02;9.18;;;8.00;99.90;;;;;;5026540;28;20057;-46
2022/09/29 00:15:04;;;;;;;11.77;8.90;;;8.00;99.90;;;;;;5028168;28;20022;-47
2022/09/29 00:17:30;;;;;;;12.85;9.10;;;8.00;99.90;;;;;;5021749;28;20021;-44
2022/09/29 00:19:55;;;;;;;12.55;8.63;;;7.90;99.90;;;;;;5022562;28;20045;-44
2022/09/29 00:22:21;;;;;;;13.65;9.15;;;7.90;99.90;;;;;;5019725;28;20025;-45
2022/09/29 00:24:47;;;;;;;12.48;9.05;;;7.80;99.90;;;;;;5021413;28;20475;-45
2022/09/29 00:27:15;;;;;;;11.38;7.82;;;7.80;99.90;;;;;;5021984;28;20030;-45
2022/09/29 00:29:40;;;;;;;11.40;7.97;;;7.80;99.90;;;;;;5020333;28;20083;-46
2022/09/29 00:32:06;;;;;;;12.48;8.70;;;7.70;99.90;;;;;;5021927;28;20029;-45
2022/09/29 00:34:31;;;;;;;13.38;8.93;;;7.60;99.90;;;;;;5021091;28;20410;-44
2022/09/29 00:36:57;;;;;;;14.10;8.68;;;7.60;99.90;;;;;;5020331;28;20030;-45
2022/09/29 00:39:22;;;;;;;13.55;9.88;;;7.60;99.90;;;;;;5022589;28;20562;-46
2022/09/29 00:41:48;;;;;;;15.10;10.40;;;7.50;99.90;;;;;;5022444;28;20044;-44
2022/09/29 00:44:13;;;;;;;13.05;8.88;;;7.50;99.90;;;;;;5030647;28;20032;-46
2022/09/29 00:46:48;;;;;;;15.57;10.00;;;7.50;99.90;;;;;;5021959;28;20530;-46
2022/09/29 00:49:21;;;;;;;18.85;10.70;;;7.40;99.90;;;;;;5024986;28;20022;-45
2022/09/29 00:52:12;;;;;;;18.45;11.85;;;7.50;99.90;;;;;;5029663;28;20021;-45
2022/09/29 00:54:46;;;;;;;17.63;11.50;;;7.50;99.90;;;;;;5021690;28;20033;-47
2022/09/29 00:57:15;;;;;;;17.02;10.50;;;7.50;99.90;;;;;;5021337;28;20022;-47
2022/09/29 00:59:45;;;;;;;16.63;10.40;;;7.60;99.90;;;;;;5026077;28;20093;-49
2022/09/29 01:02:11;;;;;;;15.20;9.85;;;7.50;99.90;;;;;;5028723;28;20029;-46
2022/09/29 01:04:36;;;;;;;11.25;8.85;;;7.40;99.90;;;;;;5025992;28;20032;-48
2022/09/29 01:07:02;;;;;;;12.82;9.30;;;7.50;99.90;;;;;;5024280;28;20017;-46
2022/09/29 01:09:33;;;;;;;12.07;8.48;;;7.50;99.90;;;;;;5020432;28;20026;-47
2022/09/29 01:11:59;;;;;;;12.35;8.18;;;7.40;99.90;;;;;;5024040;28;20034;-46
2022/09/29 01:14:27;;;;;;;11.82;8.10;;;7.40;99.90;;;;;;5026662;28;20029;-45
2022/09/29 01:16:53;;;;;;;10.48;7.72;;;7.40;99.90;;;;;;5021443;28;20423;-45
2022/09/29 01:19:38;;;;;;;13.23;8.30;;;7.30;99.90;;;;;;5018052;28;20048;-47
2022/09/29 01:22:22;;;;;;;11.98;8.50;;;7.30;99.90;;;;;;5028935;28;20018;-45
2022/09/29 01:25:04;;;;;;;10.82;7.30;;;7.20;99.90;;;;;;5019173;28;20066;-44
2022/09/29 01:28:14;;;;;;;13.73;8.50;;;7.20;99.90;;;;;;5020561;28;20531;-45
2022/09/29 01:30:59;;;;;;;11.82;8.15;;;7.10;99.90;;;;;;5021179;28;20120;-45
2022/09/29 01:33:34;;;;;;;11.38;7.20;;;7.10;99.90;;;;;;5019314;28;20021;-45
2022/09/29 01:36:23;;;;;;;14.13;8.45;;;7.10;99.90;;;;;;5019256;28;20669;-45
2022/09/29 01:39:09;;;;;;;15.35;9.68;;;7.10;99.90;;;;;;5020314;28;20030;-45
2022/09/29 01:41:41;;;;;;;17.15;10.27;;;7.10;99.90;;;;;;5021153;28;20030;-46
2022/09/29 01:44:25;;;;;;;14.32;9.40;;;7.10;99.90;;;;;;5017498;28;20026;-46
2022/09/29 01:47:03;;;;;;;12.98;8.32;;;7.10;99.90;;;;;;5020102;28;20018;-45
2022/09/29 01:49:33;;;;;;;13.27;8.32;;;7.00;99.90;;;;;;5018363;28;20026;-45
2022/09/29 01:52:16;;;;;;;14.73;8.35;;;7.00;99.90;;;;;;5028914;28;20101;-46
2022/09/29 01:54:47;;;;;;;14.63;9.18;;;6.90;99.90;;;;;;5020592;28;20028;-45
2022/09/29 01:57:28;;;;;;;16.33;9.57;;;6.90;99.90;;;;;;5020284;28;20018;-48
2022/09/29 02:00:10;;;;;;;12.30;7.80;;;6.90;99.90;;;;;;5025935;28;20022;-47
2022/09/29 02:02:57;;;;;;;15.40;9.43;;;6.80;99.90;;;;;;5023047;28;20076;-48
2022/09/29 02:05:42;;;;;;;13.07;7.25;;;6.80;99.90;;;;;;5019258;28;20065;-45
2022/09/29 02:08:15;;;;;;;15.25;8.52;;;6.80;99.90;;;;;;5019542;28;20196;-45
2022/09/29 02:10:56;;;;;;;11.10;7.78;;;6.80;99.90;;;;;;5018519;28;20495;-45
2022/09/29 02:13:23;;;;;;;12.20;8.68;;;6.80;99.90;;;;;;5017778;28;20496;-45
2022/09/29 02:15:52;;;;;;;15.35;7.55;;;6.80;99.90;;;;;;5020005;28;20391;-45
2022/09/29 02:18:23;;;;;;;13.60;8.13;;;6.90;99.90;;;;;;5020442;28;20069;-44
2022/09/29 02:20:49;;;;;;;15.20;7.70;;;6.90;99.90;;;;;;5019280;28;20115;-45
2022/09/29 02:23:15;;;;;;;14.57;8.13;;;7.00;99.90;;;;;;5017019;28;20025;-44
2022/09/29 02:25:42;;;;;;;18.08;9.82;;;7.00;99.90;;;;;;5020602;28;20050;-46
2022/09/29 02:28:08;;;;;;;14.90;8.50;;;7.10;99.90;;;;;;5019293;28;20080;-46
2022/09/29 02:30:34;;;;;;;13.63;8.77;;;7.20;99.90;;;;;;5029286;28;20025;-45
2022/09/29 02:33:00;;;;;;;15.00;8.52;;;7.20;99.90;;;;;;5022795;28;20084;-46
2022/09/29 02:35:46;;;;;;;15.13;8.07;;;7.20;99.90;;;;;;5018594;28;20030;-45
2022/09/29 02:38:50;;;;;;;15.52;8.93;;;7.20;99.90;;;;;;5018154;28;20352;-45
2022/09/29 02:41:52;;;;;;;10.50;7.82;;;7.30;99.90;;;;;;5017457;28;20510;-45
2022/09/29 02:44:23;;;;;;;13.38;8.35;;;7.30;99.90;;;;;;5019677;28;20615;-45
2022/09/29 02:47:10;;;;;;;13.05;9.07;;;7.30;99.90;;;;;;5018947;28;20128;-45
2022/09/29 02:49:56;;;;;;;13.70;7.90;;;7.30;99.90;;;;;;5020095;28;20093;-48
2022/09/29 02:52:27;;;;;;;12.65;7.72;;;7.30;99.90;;;;;;5020252;28;20053;-46
2022/09/29 02:55:09;;;;;;;11.82;7.65;;;7.30;99.90;;;;;;5019533;28;20112;-47
2022/09/29 02:58:10;;;;;;;11.77;7.47;;;7.30;99.90;;;;;;5019633;28;20057;-48
2022/09/29 03:00:36;;;;;;;17.13;8.40;;;7.30;99.90;;;;;;5026562;28;20356;-47
2022/09/29 03:03:01;;;;;;;13.75;8.23;;;7.30;99.90;;;;;;5022578;28;20057;-46
2022/09/29 03:05:27;;;;;;;12.77;8.30;;;7.20;99.90;;;;;;5018593;28;20056;-46
2022/09/29 03:07:52;;;;;;;13.18;8.25;;;7.20;99.90;;;;;;5018797;28;20018;-45
2022/09/29 03:10:18;;;;;;;10.70;7.25;;;7.20;99.90;;;;;;5020131;28;20029;-49
2022/09/29 03:12:45;;;;;;;12.27;7.53;;;7.20;99.90;;;;;;5021719;28;20479;-44
2022/09/29 03:15:11;;;;;;;12.48;7.68;;;7.20;99.90;;;;;;5025991;28;20029;-45
2022/09/29 03:17:37;;;;;;;12.32;8.38;;;7.20;99.90;;;;;;5020351;28;20108;-45
2022/09/29 03:20:04;;;;;;;10.82;7.90;;;7.20;99.90;;;;;;5019690;28;20035;-46
2022/09/29 03:22:29;;;;;;;18.02;8.32;;;7.20;99.90;;;;;;5016595;28;20065;-46
2022/09/29 03:24:55;;;;;;;12.20;7.35;;;7.20;99.90;;;;;;5019889;28;20049;-46
2022/09/29 03:27:20;;;;;;;11.75;7.53;;;7.20;99.90;;;;;;5017716;28;20014;-45
2022/09/29 03:29:46;;;;;;;11.70;7.50;;;7.20;99.90;;;;;;5023535;28;20124;-45
2022/09/29 03:32:11;;;;;;;12.15;8.32;;;7.10;99.90;;;;;;5025299;28;20010;-45
2022/09/29 03:34:36;;;;;;;10.57;7.60;;;7.10;99.90;;;;;;5017578;28;20094;-45
2022/09/29 03:37:02;;;;;;;11.18;7.68;;;7.00;99.90;;;;;;5023346;28;20030;-45
2022/09/29 03:39:28;;;;;;;12.02;7.00;;;7.10;99.90;;;;;;5019123;28;20026;-46
2022/09/29 03:41:54;;;;;;;11.82;8.43;;;7.00;99.90;;;;;;5012685;28;20018;-44
2022/09/29 03:44:19;;;;;;;11.73;7.32;;;6.90;99.90;;;;;;5019063;28;20108;-45
2022/09/29 03:46:46;;;;;;;10.65;7.18;;;6.90;99.90;;;;;;5017640;28;20033;-44
2022/09/29 03:49:12;;;;;;;12.93;7.88;;;6.90;99.90;;;;;;5018787;28;20067;-45
2022/09/29 03:51:38;;;;;;;11.73;8.25;;;6.90;99.90;;;;;;5019500;28;20014;-45
2022/09/29 03:54:04;;;;;;;15.75;8.20;;;7.00;99.90;;;;;;5019184;28;20498;-45
2022/09/29 03:56:30;;;;;;;15.63;7.13;;;7.00;99.90;;;;;;5018329;28;20026;-46
2022/09/29 03:58:55;;;;;;;11.45;7.85;;;7.00;99.90;;;;;;5022121;28;20235;-47
2022/09/29 04:01:21;;;;;;;9.02;6.43;;;7.00;99.90;;;;;;5034850;28;20666;-46
2022/09/29 04:03:46;;;;;;;13.95;7.13;;;7.00;99.90;;;;;;5022450;28;20034;-45
2022/09/29 04:06:12;;;;;;;11.77;7.00;;;6.90;99.90;;;;;;5022529;28;20484;-45
2022/09/29 04:08:38;;;;;;;19.45;9.30;;;6.90;99.90;;;;;;5022654;28;20479;-46
2022/09/29 04:11:04;;;;;;;12.18;7.95;;;6.90;99.90;;;;;;5023157;28;20025;-45
2022/09/29 04:13:30;;;;;;;15.38;8.65;;;6.90;99.90;;;;;;5018906;28;20526;-48
2022/09/29 04:15:59;;;;;;;13.73;8.77;;;6.90;99.90;;;;;;5021827;28;20025;-46
2022/09/29 04:18:25;;;;;;;11.52;8.50;;;6.90;99.90;;;;;;5021201;28;20080;-45
2022/09/29 04:20:50;;;;;;;13.15;7.97;;;6.90;99.90;;;;;;5021722;28;20021;-46
2022/09/29 04:23:16;;;;;;;12.50;9.02;;;6.90;99.90;;;;;;5020293;28;20483;-45
2022/09/29 04:25:44;;;;;;;14.55;9.98;;;6.90;99.90;;;;;;5023351;28;20392;-45
2022/09/29 04:28:10;;;;;;;13.43;8.95;;;6.90;99.90;;;;;;5024806;28;20035;-47
2022/09/29 04:30:35;;;;;;;15.55;8.70;;;6.90;99.90;;;;;;5026339;28;20026;-44
2022/09/29 04:33:01;;;;;;;13.95;9.70;;;6.90;99.90;;;;;;5025212;28;20510;-45
2022/09/29 04:35:26;;;;;;;18.80;10.57;;;6.90;99.90;;;;;;5022629;28;20045;-48
2022/09/29 04:37:56;;;;;;;19.60;10.27;;;6.90;99.90;;;;;;5013609;28;20495;-46
2022/09/29 04:40:22;;;;;;;19.08;10.30;;;6.90;99.90;;;;;;5014097;28;20478;-46
2022/09/29 04:42:48;;;;;;;22.10;12.35;;;6.90;99.90;;;;;;5013783;28;20017;-45
2022/09/29 04:45:13;;;;;;;20.10;10.90;;;6.90;99.90;;;;;;5013810;28;20475;-46
2022/09/29 04:47:39;;;;;;;21.27;12.18;;;7.00;99.90;;;;;;5014090;28;20025;-46
2022/09/29 04:50:05;;;;;;;24.60;12.05;;;7.00;99.90;;;;;;5015882;28;20101;-46
2022/09/29 04:52:30;;;;;;;19.35;12.20;;;6.90;99.90;;;;;;5019330;28;20052;-46
2022/09/29 04:54:56;;;;;;;24.33;14.38;;;7.00;99.90;;;;;;5018815;28;20030;-45
2022/09/29 04:57:21;;;;;;;19.15;11.07;;;6.90;99.90;;;;;;5020916;28;20546;-47
2022/09/29 04:59:50;;;;;;;19.63;12.07;;;6.90;99.90;;;;;;5029376;28;20014;-46
2022/09/29 05:02:17;;;;;;;17.38;10.30;;;6.90;99.90;;;;;;5030920;28;20088;-45
2022/09/29 05:04:42;;;;;;;19.25;11.48;;;6.90;99.90;;;;;;5020370;28;20467;-45
2022/09/29 05:07:07;;;;;;;22.02;13.30;;;6.90;99.90;;;;;;5021672;28;20022;-45
2022/09/29 05:09:33;;;;;;;19.67;11.77;;;6.90;99.90;;;;;;5021194;28;20549;-48
2022/09/29 05:11:59;;;;;;;18.05;12.38;;;6.90;99.90;;;;;;5021458;28;20024;-48
2022/09/29 05:14:25;;;;;;;21.00;11.68;;;6.90;99.90;;;;;;5022503;28;20096;-45
2022/09/29 05:16:53;;;;;;;21.52;13.13;;;6.90;99.90;;;;;;5025887;28;20030;-46
2022/09/29 05:19:19;;;;;;;26.27;14.63;;;6.90;99.90;;;;;;5022025;28;20133;-45
2022/09/29 05:21:45;;;;;;;19.63;12.23;;;6.90;99.90;;;;;;5020720;28;20526;-46
2022/09/29 05:24:11;;;;;;;20.85;11.95;;;6.90;99.90;;;;;;5019550;28;20100;-45
2022/09/29 05:26:37;;;;;;;21.60;12.75;;;6.90;99.90;;;;;;5019339;28;20109;-48
2022/09/29 05:29:02;;;;;;;21.05;13.02;;;6.90;99.90;;;;;;5031326;28;20060;-45
2022/09/29 05:31:28;;;;;;;23.15;14.38;;;6.90;99.90;;;;;;5030986;28;20033;-44
2022/09/29 05:33:55;;;;;;;24.40;13.95;;;6.90;99.90;;;;;;5036981;28;20071;-45
2022/09/29 05:36:21;;;;;;;26.60;15.80;;;6.90;99.90;;;;;;5050532;28;20094;-45
2022/09/29 05:38:46;;;;;;;25.60;15.70;;;7.00;99.90;;;;;;5050053;28;20036;-46
2022/09/29 05:41:12;;;;;;;25.13;14.23;;;7.00;99.90;;;;;;5051282;28;20542;-45
2022/09/29 05:43:39;;;;;;;26.20;14.52;;;7.10;99.90;;;;;;5043693;28;20022;-45
2022/09/29 05:46:07;;;;;;;24.08;14.13;;;7.10;99.90;;;;;;5023850;28;20430;-46
2022/09/29 05:48:33;;;;;;;22.27;13.48;;;7.10;99.90;;;;;;5030073;28;20017;-45
2022/09/29 05:51:05;;;;;;;25.17;13.27;;;7.10;99.90;;;;;;5029523;28;20032;-46
2022/09/29 05:53:30;;;;;;;23.58;13.07;;;7.10;99.90;;;;;;5029024;28;20569;-45
2022/09/29 05:55:56;;;;;;;24.95;13.35;;;7.10;99.90;;;;;;5029433;28;20029;-45
2022/09/29 05:58:21;;;;;;;21.52;13.27;;;7.00;99.90;;;;;;5029282;28;20474;-45
2022/09/29 06:00:47;;;;;;;24.98;12.55;;;7.10;99.90;;;;;;5021558;28;20065;-45
2022/09/29 06:03:12;;;;;;;26.40;13.13;;;7.10;99.90;;;;;;5026282;28;20030;-45
2022/09/29 06:05:39;;;;;;;29.02;15.82;;;7.20;99.90;;;;;;5027077;28;20065;-46
2022/09/29 06:08:05;;;;;;;25.50;14.48;;;7.10;99.90;;;;;;5029700;28;20395;-46
2022/09/29 06:10:31;;;;;;;24.58;14.23;;;7.10;99.90;;;;;;5030511;28;20025;-49
2022/09/29 06:12:57;;;;;;;23.45;15.25;;;7.20;99.90;;;;;;5030134;28;20049;-47
2022/09/29 06:15:23;;;;;;;31.52;15.05;;;7.20;99.90;;;;;;5030858;28;20115;-50
2022/09/29 06:17:59;;;;;;;24.38;14.30;;;7.20;99.90;;;;;;5030286;28;20124;-46
2022/09/29 06:20:26;;;;;;;23.95;15.15;;;7.30;99.90;;;;;;5010806;28;20040;-46
2022/09/29 06:22:53;;;;;;;21.83;13.65;;;7.30;99.90;;;;;;5009867;28;20065;-45
2022/09/29 06:25:19;;;;;;;32.15;15.10;;;7.30;99.90;;;;;;5009202;28;20479;-47
2022/09/29 06:27:44;;;;;;;30.30;16.88;;;7.40;99.90;;;;;;5010708;28;20022;-45
2022/09/29 06:30:12;;;;;;;26.70;15.90;;;7.40;99.90;;;;;;5010326;28;20076;-45
2022/09/29 06:32:43;;;;;;;23.42;13.88;;;7.50;99.90;;;;;;5010282;28;20541;-47
2022/09/29 06:37:55;;;;;;;32.10;15.85;;;7.60;99.90;;;;;;5010777;28;20565;-45
2022/09/29 06:40:22;;;;;;;31.35;16.92;;;7.70;99.90;;;;;;5010468;28;20136;-45
2022/09/29 06:42:48;;;;;;;30.98;17.88;;;7.70;99.90;;;;;;5012345;28;20040;-46
2022/09/29 06:45:14;;;;;;;29.58;16.83;;;7.80;99.90;;;;;;5021188;28;20712;-46
2022/09/29 06:47:39;;;;;;;29.38;16.70;;;7.80;99.90;;;;;;5023367;28;20034;-47
2022/09/29 06:50:05;;;;;;;31.65;17.65;;;7.90;99.90;;;;;;5029619;28;20025;-48
2022/09/29 06:52:31;;;;;;;28.98;17.88;;;7.90;99.90;;;;;;5028216;28;20704;-47
2022/09/29 06:54:56;;;;;;;36.15;18.45;;;8.00;99.90;;;;;;5029806;28;20030;-45
2022/09/29 06:57:22;;;;;;;34.33;19.42;;;8.00;99.90;;;;;;5029304;28;20582;-45
2022/09/29 06:59:47;;;;;;;29.15;18.15;;;8.00;99.90;;;;;;5029469;28;20053;-45
2022/09/29 07:02:13;;;;;;;32.38;18.45;;;8.10;99.90;;;;;;5022929;28;20032;-44
2022/09/29 07:04:39;;;;;;;30.13;19.48;;;8.20;99.90;;;;;;5029077;28;20034;-46
2022/09/29 07:07:04;;;;;;;36.88;18.60;;;8.20;99.90;;;;;;5029596;28;20430;-46
2022/09/29 07:09:30;;;;;;;31.55;19.25;;;8.30;99.90;;;;;;5029568;28;20116;-48
2022/09/29 07:11:55;;;;;;;35.83;20.52;;;8.30;99.90;;;;;;5029539;28;20026;-45
2022/09/29 07:14:22;;;;;;;31.63;19.60;;;8.40;99.90;;;;;;5029349;28;20116;-47
2022/09/29 07:16:48;;;;;;;42.63;21.45;;;8.50;99.90;;;;;;5030142;28;20029;-47
2022/09/29 07:19:16;;;;;;;32.03;19.08;;;8.60;99.90;;;;;;5016755;28;20157;-47
2022/09/29 07:21:42;;;;;;;33.78;19.92;;;8.70;99.90;;;;;;5018283;28;20116;-45
2022/09/29 07:24:08;;;;;;;34.92;21.27;;;8.70;99.90;;;;;;5028884;28;20120;-48
2022/09/29 07:26:34;;;;;;;33.53;20.98;;;8.80;99.90;;;;;;5029591;28;20029;-45
2022/09/29 07:28:59;;;;;;;28.73;19.10;;;8.80;99.90;;;;;;5028520;28;20041;-44
2022/09/29 07:31:24;;;;;;;34.30;21.05;;;8.90;99.90;;;;;;5011737;28;20380;-47
2022/09/29 07:33:51;;;;;;;30.25;19.80;;;9.00;99.90;;;;;;5013040;28;20029;-45
2022/09/29 07:36:18;;;;;;;30.38;19.77;;;9.00;99.90;;;;;;5013531;28;20029;-44
2022/09/29 07:38:48;;;;;;;31.48;19.38;;;9.10;99.90;;;;;;5013905;28;20025;-45
2022/09/29 07:41:14;;;;;;;34.55;20.55;;;9.10;99.90;;;;;;5013372;28;20507;-45
2022/09/29 07:43:40;;;;;;;49.20;29.48;;;9.20;99.90;;;;;;5012959;28;20042;-45
2022/09/29 07:46:06;;;;;;;34.67;21.65;;;9.30;99.90;;;;;;5013243;28;20038;-45
2022/09/29 07:48:32;;;;;;;31.40;20.90;;;9.30;99.90;;;;;;5012108;28;20116;-45
2022/09/29 07:51:13;;;;;;;34.30;19.50;;;9.40;99.90;;;;;;5013262;28;20168;-45
2022/09/29 07:53:39;;;;;;;28.63;17.05;;;9.50;99.90;;;;;;5012989;28;20022;-46
2022/09/29 07:56:06;;;;;;;31.52;20.25;;;9.60;99.90;;;;;;5011802;28;20033;-47
2022/09/29 07:58:32;;;;;;;29.60;19.92;;;9.60;99.90;;;;;;5011963;28;20025;-48
2022/09/29 08:00:59;;;;;;;30.25;19.45;;;9.70;99.90;;;;;;5013044;28;20030;-48
2022/09/29 08:03:25;;;;;;;25.88;17.48;;;9.90;99.90;;;;;;5022972;28;20013;-45
2022/09/29 08:05:52;;;;;;;31.33;17.48;;;10.00;99.90;;;;;;5014188;28;20584;-45
2022/09/29 08:08:17;;;;;;;27.58;18.08;;;10.10;99.90;;;;;;5012574;28;20026;-48
2022/09/29 08:10:43;;;;;;;23.40;15.65;;;10.20;99.90;;;;;;5012407;28;20030;-47
2022/09/29 08:13:08;;;;;;;26.42;17.00;;;10.30;99.90;;;;;;5015289;28;20018;-45
2022/09/29 08:15:34;;;;;;;24.20;17.27;;;10.40;99.90;;;;;;5031766;28;20060;-45
2022/09/29 08:17:59;;;;;;;24.83;17.30;;;10.60;99.90;;;;;;5021716;28;20037;-48
2022/09/29 08:20:25;;;;;;;23.40;16.65;;;10.70;99.90;;;;;;5022633;28;20548;-47
2022/09/29 08:22:54;;;;;;;21.77;15.05;;;10.80;99.90;;;;;;5031048;28;20113;-45
2022/09/29 08:25:20;;;;;;;20.83;14.75;;;11.00;99.90;;;;;;5031244;28;20021;-47
2022/09/29 08:27:45;;;;;;;17.95;14.02;;;11.60;99.90;;;;;;5031501;28;20025;-45
2022/09/29 08:30:11;;;;;;;17.27;12.32;;;13.00;99.90;;;;;;5030948;28;20075;-45
2022/09/29 08:32:37;;;;;;;16.65;12.50;;;14.80;99.90;;;;;;5030968;28;20055;-47
2022/09/29 08:35:03;;;;;;;12.73;10.10;;;16.10;99.90;;;;;;5030011;28;20071;-48
2022/09/29 08:37:30;;;;;;;10.88;9.70;;;17.00;99.90;;;;;;5031114;28;20051;-47
2022/09/29 08:39:55;;;;;;;11.00;9.82;;;18.80;99.00;;;;;;5030140;28;20021;-49
2022/09/29 08:42:36;;;;;;;15.10;10.73;;;19.10;96.00;;;;;;5031919;28;20124;-46
2022/09/29 08:45:10;;;;;;;12.30;8.48;;;20.30;93.30;;;;;;5030585;28;20028;-47
2022/09/29 08:47:46;;;;;;;8.35;7.22;;;21.40;90.80;;;;;;5031475;28;20026;-47
2022/09/29 08:50:25;;;;;;;14.10;9.15;;;21.60;89.60;;;;;;5018795;28;20117;-47
2022/09/29 08:52:55;;;;;;;9.90;8.33;;;21.70;88.20;;;;;;5018073;28;20021;-48
2022/09/29 08:55:39;;;;;;;9.23;8.27;;;21.90;85.50;;;;;;5016040;28;20026;-46
2022/09/29 08:58:10;;;;;;;9.10;7.90;;;22.90;82.30;;;;;;5009675;28;20550;-46
2022/09/29 09:00:59;;;;;;;10.48;9.27;;;23.60;79.10;;;;;;5010337;28;20030;-46
2022/09/29 09:03:49;;;;;;;9.05;7.05;;;23.60;76.80;;;;;;5013926;28;20319;-47
2022/09/29 09:06:32;;;;;;;10.35;7.53;;;24.20;75.00;;;;;;5028373;28;20041;-46
2022/09/29 09:09:26;;;;;;;9.23;8.30;;;24.00;75.20;;;;;;5029953;28;20383;-46
2022/09/29 09:11:54;;;;;;;10.85;9.80;;;24.20;75.20;;;;;;5030288;28;20572;-46
2022/09/29 09:15:01;;;;;;;7.95;7.25;;;23.50;72.10;;;;;;5028004;28;20123;-46
2022/09/29 09:17:58;;;;;;;8.00;7.20;;;23.70;73.70;;;;;;5030204;28;20033;-46
2022/09/29 09:20:35;;;;;;;8.88;6.65;;;25.20;69.70;;;;;;5020880;28;20048;-45
2022/09/29 09:23:06;;;;;;;8.25;5.47;;;25.70;70.20;;;;;;5029701;28;20112;-46
2022/09/29 09:25:34;;;;;;;7.32;6.32;;;26.00;69.70;;;;;;5029984;28;20030;-46
2022/09/29 09:28:23;;;;;;;10.90;7.35;;;26.20;66.80;;;;;;5029596;28;20124;-47
2022/09/29 09:30:52;;;;;;;6.13;5.53;;;25.10;66.40;;;;;;5028927;28;20483;-47
2022/09/29 09:33:46;;;;;;;8.50;6.57;;;26.00;66.80;;;;;;5029120;28;20037;-47
2022/09/29 09:36:21;;;;;;;8.30;7.43;;;26.20;65.80;;;;;;5029717;28;20323;-46
2022/09/29 09:39:13;;;;;;;5.53;5.03;;;26.10;63.30;;;;;;5029559;28;20025;-47
2022/09/29 09:41:40;;;;;;;7.32;6.53;;;26.10;67.30;;;;;;5029888;28;20037;-47
2022/09/29 09:44:17;;;;;;;7.05;6.35;;;26.90;64.70;;;;;;5022509;28;20095;-47
2022/09/29 09:46:51;;;;;;;5.57;4.63;;;26.30;62.50;;;;;;5028422;28;20032;-48
2022/09/29 09:49:54;;;;;;;8.85;7.78;;;26.80;65.60;;;;;;5029345;28;20387;-46
2022/09/29 09:52:21;;;;;;;5.80;5.18;;;25.40;64.30;;;;;;5024292;28;20044;-47
2022/09/29 09:54:52;;;;;;;9.10;6.30;;;26.00;65.90;;;;;;5023057;28;20040;-46
2022/09/29 09:57:42;;;;;;;6.10;5.28;;;26.40;64.10;;;;;;5029853;28;20049;-46
2022/09/29 10:00:16;;;;;;;6.40;5.65;;;25.80;64.20;;;;;;5020748;28;20033;-47
2022/09/29 10:02:51;;;;;;;8.65;5.70;;;25.10;65.50;;;;;;5017824;28;20036;-46
2022/09/29 10:05:25;;;;;;;6.47;5.88;;;24.80;66.20;;;;;;5017757;28;20028;-46
2022/09/29 10:07:51;;;;;;;6.80;5.85;;;24.20;66.60;;;;;;5019038;28;20025;-47
2022/09/29 10:10:23;;;;;;;8.52;6.85;;;23.00;69.10;;;;;;5018941;28;20446;-45
2022/09/29 10:13:02;;;;;;;7.88;6.53;;;22.30;70.10;;;;;;5017976;28;20320;-46
2022/09/29 10:15:39;;;;;;;6.40;4.95;;;22.50;72.30;;;;;;5015905;28;20029;-45
2022/09/29 10:18:13;;;;;;;6.50;5.80;;;23.30;66.90;;;;;;5013589;28;20364;-45
2022/09/29 10:20:40;;;;;;;5.22;4.40;;;24.20;68.00;;;;;;5019418;28;20479;-47
2022/09/29 10:23:26;;;;;;;8.10;6.30;;;25.10;68.40;;;;;;5019796;28;20482;-45
2022/09/29 10:26:17;;;;;;;9.20;8.30;;;25.50;67.50;;;;;;5017205;28;20060;-45
2022/09/29 10:28:49;;;;;;;8.23;7.18;;;24.30;66.80;;;;;;5019381;28;20017;-45
2022/09/29 10:31:25;;;;;;;14.40;6.68;;;22.40;69.40;;;;;;5012826;28;20037;-46
2022/09/29 10:33:57;;;;;;;8.95;6.30;;;21.70;73.20;;;;;;5019615;28;20144;-46
2022/09/29 10:36:26;;;;;;;8.65;6.80;;;21.30;73.70;;;;;;5026139;28;20041;-44
2022/09/29 10:38:52;;;;;;;8.55;7.45;;;20.10;74.00;;;;;;5028985;28;20538;-45
2022/09/29 10:41:18;;;;;;;7.90;6.47;;;19.30;79.30;;;;;;5007915;28;20034;-44
2022/09/29 10:43:46;;;;;;;10.25;7.25;;;18.60;78.60;;;;;;5027108;28;20037;-44
2022/09/29 10:46:27;;;;;;;10.30;8.13;;;18.20;80.90;;;;;;5027761;28;20056;-45
2022/09/29 10:49:17;;;;;;;9.38;6.40;;;17.30;82.30;;;;;;5024244;28;20041;-45
2022/09/29 10:51:55;;;;;;;9.10;6.63;;;17.00;84.90;;;;;;5026917;28;20017;-45
2022/09/29 10:54:26;;;;;;;9.50;6.82;;;16.50;88.00;;;;;;5026638;28;20037;-45
2022/09/29 10:56:54;;;;;;;7.28;5.82;;;16.90;86.10;;;;;;5028509;28;20479;-47
2022/09/29 10:59:21;;;;;;;14.43;10.60;;;17.20;86.10;;;;;;5028350;28;20072;-45
2022/09/29 11:01:50;;;;;;;12.95;8.82;;;17.00;86.80;;;;;;5028692;28;20025;-45
2022/09/29 11:04:24;;;;;;;8.75;6.55;;;16.60;87.80;;;;;;5028254;28;20044;-45
2022/09/29 11:06:50;;;;;;;8.98;5.78;;;16.50;88.30;;;;;;5028495;28;20479;-44
2022/09/29 11:09:19;;;;;;;8.77;4.88;;;17.20;89.40;;;;;;5032472;28;20072;-45
2022/09/29 11:11:47;;;;;;;7.13;5.43;;;16.80;87.90;;;;;;5032105;28;20033;-45
2022/09/29 11:14:35;;;;;;;6.78;5.93;;;16.70;87.60;;;;;;5032069;28;20071;-46
2022/09/29 11:17:17;;;;;;;8.48;6.03;;;16.70;89.90;;;;;;5032233;28;20025;-45
2022/09/29 11:19:43;;;;;;;8.50;6.00;;;17.30;85.20;;;;;;5032149;28;20417;-45
2022/09/29 11:22:21;;;;;;;6.68;4.93;;;17.30;85.90;;;;;;5032062;28;20030;-46
2022/09/29 11:24:56;;;;;;;5.10;3.60;;;18.40;82.60;;;;;;5031790;28;20025;-47
2022/09/29 11:27:40;;;;;;;6.68;5.07;;;19.30;84.10;;;;;;5032168;28;20095;-45
2022/09/29 11:30:14;;;;;;;5.00;3.85;;;20.10;81.90;;;;;;5030265;28;20027;-46
2022/09/29 11:32:49;;;;;;;6.90;4.18;;;20.90;78.10;;;;;;5031364;28;20027;-46
2022/09/29 11:35:34;;;;;;;8.45;3.72;;;21.60;76.50;;;;;;5031866;28;20475;-46
2022/09/29 11:38:15;;;;;;;4.63;3.45;;;21.30;77.00;;;;;;5032059;28;20056;-44
2022/09/29 11:40:50;;;;;;;6.20;4.05;;;20.90;76.80;;;;;;5031805;28;20025;-45
2022/09/29 11:43:50;;;;;;;8.27;4.25;;;20.90;77.40;;;;;;5031294;28;20025;-44
2022/09/29 11:46:52;;;;;;;6.03;4.03;;;20.10;79.50;;;;;;5032172;28;20377;-45
2022/09/29 11:49:31;;;;;;;3.30;2.72;;;19.40;79.50;;;;;;5031608;28;20314;-44
2022/09/29 11:52:22;;;;;;;4.78;2.58;;;19.60;80.50;;;;;;5032139;28;20336;-45
2022/09/29 11:55:26;;;;;;;6.28;4.63;;;20.40;80.60;;;;;;5031512;28;20029;-45
2022/09/29 11:58:21;;;;;;;6.18;3.45;;;21.50;76.00;;;;;;5009079;28;20041;-45
2022/09/29 12:01:04;;;;;;;3.60;2.90;;;21.40;76.50;;;;;;5009294;28;20034;-44
2022/09/29 12:03:44;;;;;;;3.22;2.83;;;20.70;75.60;;;;;;5026332;28;20037;-44
2022/09/29 12:06:46;;;;;;;3.97;3.05;;;20.50;77.70;;;;;;5030260;28;20036;-45
2022/09/29 12:09:25;;;;;;;5.15;3.28;;;20.50;78.10;;;;;;5031363;28;20025;-47
2022/09/29 12:12:10;;;;;;;4.65;3.13;;;20.40;78.00;;;;;;5031239;28;20057;-44
2022/09/29 12:15:10;;;;;;;5.00;3.00;;;19.90;76.90;;;;;;5029763;28;20030;-45
2022/09/29 12:17:42;;;;;;;5.50;2.53;;;19.70;77.50;;;;;;5031512;28;20025;-46
2022/09/29 12:20:22;;;;;;;2.70;2.00;;;19.30;79.80;;;;;;5031159;28;20049;-46
2022/09/29 12:22:49;;;;;;;;;;;19.70;80.40;;;;;;5031551;28;20026;-46
2022/09/29 12:25:18;;;;;;;3.67;3.15;;;19.90;77.90;;;;;;5030167;28;19952;-46
2022/09/29 12:27:48;;;;;;;4.65;3.55;;;20.20;75.90;;;;;;5031324;28;20037;-45
2022/09/29 12:30:22;;;;;;;5.30;3.10;;;20.30;76.20;;;;;;5029040;28;20127;-46
2022/09/29 12:33:12;;;;;;;4.15;2.97;;;20.30;79.60;;;;;;5030307;28;20029;-45
2022/09/29 12:35:45;;;;;;;4.17;3.33;;;20.10;78.80;;;;;;5030514;28;20030;-45
2022/09/29 12:38:15;;;;;;;3.72;3.33;;;19.50;79.20;;;;;;5030780;28;20570;-45
2022/09/29 12:41:02;;;;;;;;;;;18.90;80.30;;;;;;5031206;28;20025;-45
2022/09/29 12:43:56;;;;;;;5.88;3.90;;;18.40;83.90;;;;;;5028699;28;20366;-45
2022/09/29 12:46:43;;;;;;;6.47;4.05;;;18.50;83.90;;;;;;5029628;28;20045;-45
2022/09/29 12:49:23;;;;;;;7.07;3.33;;;18.20;85.20;;;;;;5030759;28;20036;-45
2022/09/29 12:51:50;;;;;;;;;;;17.90;83.80;;;;;;5030978;28;20025;-46
2022/09/29 12:54:56;;;;;;;4.38;2.97;;;17.80;85.20;;;;;;5029825;28;19905;-46
2022/09/29 12:57:26;;;;;;;11.45;3.58;;;17.70;85.30;;;;;;5007830;28;20060;-46
2022/09/29 13:00:04;;;;;;;4.43;2.67;;;17.80;84.60;;;;;;5026302;28;20033;-45
2022/09/29 13:03:08;;;;;;;5.03;2.05;;;17.60;84.40;;;;;;5009900;28;20547;-45
2022/09/29 13:06:05;;;;;;;2.35;1.58;;;17.90;86.10;;;;;;5010314;28;20050;-45
2022/09/29 13:08:46;;;;;;;4.60;2.20;;;17.90;84.50;;;;;;5013820;28;20053;-48
2022/09/29 13:11:40;;;;;;;2.67;2.00;;;17.50;83.50;;;;;;5030093;28;20033;-45